Latest Weather Observations for Ulladulla

IDN60901

Issued at 6:31 pm EDT Tuesday 10 December 2019 (issued every 10 minutes, with the page automatically refreshed every 10 minutes)

About weather observations | Map of Canberra area stations | Latest observations for Canberra area | Other Formats
Station Details ID: 069138 Name: ULLADULLA AWS Lat: -35.36 Lon: 150.48 Height: 35.7 m
Data from the previous 72 hours. | See also: Recent months at Ulladulla
Date/Time
EDT
Temp
°C
App
Temp
°C
Dew
Point
°C
Rel
Hum
%
Delta-T
°C
Wind Press
QNH
hPa
Press
MSL
hPa
Rain since
9am
mm
Dir  Spd
km/h
Gust
km/h
Spd
kts
Gust
kts
10/06:30pm 18.5 14.0 13.8 74 2.7 S 30 35 16 19 1015.9 1015.8 0.0
10/06:00pm 18.8 15.1 13.9 73 2.8 S 26 37 14 20 1015.3 1015.2 0.0
10/05:30pm 19.5 14.7 14.1 71 3.1 S 32 39 17 21 1014.9 1014.8 0.0
10/05:00pm 19.6 15.2 14.0 70 3.2 S 30 37 16 20 1014.8 1014.7 0.0
10/04:30pm 20.0 16.1 14.4 70 3.3 S 28 35 15 19 1014.6 1014.5 0.0
10/04:00pm 20.5 16.2 14.4 68 3.6 S 30 35 16 19 1014.2 1014.1 0.0
10/03:30pm 21.1 18.5 15.0 68 3.6 S 22 32 12 17 1014.1 1014.0 0.0
10/03:00pm 21.8 19.5 14.7 64 4.2 S 20 28 11 15 1014.0 1013.9 0.0
10/02:30pm 22.4 20.3 14.8 62 4.5 S 19 28 10 15 1013.8 1013.7 0.0
10/02:00pm 23.1 22.4 17.3 70 3.6 S 17 24 9 13 1013.5 1013.4 0.0
10/01:30pm 22.7 22.3 17.2 71 3.4 SSW 15 22 8 12 1013.6 1013.5 0.0
10/01:00pm 22.5 21.7 17.0 71 3.4 SSW 17 24 9 13 1013.6 1013.5 0.0
10/12:30pm 21.9 21.0 16.8 73 3.1 SSW 17 26 9 14 1013.6 1013.5 0.0
10/12:00pm 22.6 21.5 17.3 72 3.3 SSW 19 32 10 17 1013.5 1013.4 0.0
10/11:30am 22.4 21.5 17.8 75 2.9 SSW 19 28 10 15 1013.6 1013.5 0.0
10/11:00am 21.9 21.1 18.5 81 2.1 SSW 20 32 11 17 1013.7 1013.6 0.0
10/10:30am 20.0 18.8 18.5 91 0.9 SSW 22 32 12 17 1013.9 1013.8 0.0
10/10:00am 20.3 18.1 18.8 91 0.9 SSW 28 43 15 23 1013.8 1013.7 0.0
10/09:30am 20.3 17.5 19.1 93 0.8 S 32 44 17 24 1013.1 1013.0 0.0
10/09:00am 19.9 19.2 18.6 92 0.8 SSW 20 32 11 17 1012.9 1012.8 1.6
10/08:30am 19.9 21.7 18.2 90 1.1 W 6 19 3 10 1012.3 1012.2 1.6
10/08:00am 19.3 21.2 18.5 95 0.5 N 6 9 3 5 1011.7 1011.6 1.6
10/07:30am 18.9 20.7 18.4 97 0.3 N 6 9 3 5 1011.7 1011.6 1.6
10/07:00am 18.5 20.1 18.2 98 0.2 N 7 11 4 6 1011.7 1011.6 1.6
10/06:30am 18.1 19.5 17.8 98 0.2 N 7 9 4 5 1011.7 1011.6 1.6
10/06:00am 17.9 19.8 17.6 98 0.2 N 4 6 2 3 1011.6 1011.5 1.4
10/05:30am 18.2 19.8 17.9 98 0.2 N 6 9 3 5 1011.5 1011.4 1.4
10/05:00am 18.1 19.4 17.6 97 0.3 N 7 9 4 5 1011.6 1011.5 1.4
10/04:30am 18.0 19.5 17.5 97 0.3 N 6 7 3 4 1011.6 1011.5 1.4
10/04:00am 18.4 20.0 17.8 96 0.4 N 6 9 3 5 1011.7 1011.6 1.4
10/03:30am 18.6 20.0 17.9 96 0.4 N 7 9 4 5 1012.2 1012.1 1.4
10/03:00am 18.9 20.4 18.1 95 0.5 N 7 11 4 6 1012.4 1012.3 1.4
10/02:30am 19.1 20.3 18.3 95 0.5 N 9 11 5 6 1012.7 1012.6 1.4
10/02:00am 19.2 20.9 18.4 95 0.5 N 7 11 4 6 1013.1 1013.0 1.4
10/01:30am 19.2 20.8 18.2 94 0.6 N 7 9 4 5 1013.5 1013.4 1.4
10/01:00am 19.3 20.9 18.3 94 0.6 N 7 11 4 6 1013.8 1013.7 1.4
10/12:30am 19.5 20.7 18.2 92 0.8 N 9 13 5 7 1014.2 1014.1 0.2
10/12:00am 19.8 21.2 17.4 86 1.5 N 6 9 3 5 1014.6 1014.5 0.0
 
Date/Time
EDT
Temp
°C
App
Temp
°C
Dew
Point
°C
Rel
Hum
%
Delta-T
°C
Wind Press
QNH
hPa
Press
MSL
hPa
Rain since
9am
mm
Dir  Spd
km/h
Gust
km/h
Spd
kts
Gust
kts
09/11:30pm 20.1 21.4 17.1 83 1.8 NNW 6 9 3 5 1014.8 1014.7 0.0
09/11:00pm 20.4 21.1 17.0 81 2.1 NNW 9 15 5 8 1014.8 1014.7 0.0
09/10:30pm 20.5 21.2 17.1 81 2.1 N 9 13 5 7 1015.0 1014.9 0.0
09/10:00pm 20.4 21.1 17.0 81 2.1 N 9 15 5 8 1014.8 1014.7 0.0
09/09:30pm 20.4 20.8 17.2 82 2.0 N 11 20 6 11 1014.8 1014.7 0.0
09/09:00pm 20.3 18.3 17.5 84 1.7 NNW 24 39 13 21 1013.7 1013.6 0.0
09/08:30pm 20.3 19.6 17.3 83 1.8 NNW 17 26 9 14 1013.6 1013.5 0.0
09/08:00pm 20.4 20.7 17.0 81 2.1 N 11 20 6 11 1013.7 1013.6 0.0
09/07:30pm 20.6 20.4 16.8 79 2.3 NNE 13 26 7 14 1013.7 1013.6 0.0
09/07:00pm 20.9 21.2 16.9 78 2.4 NNE 11 20 6 11 1013.6 1013.5 0.0
09/06:30pm 21.3 21.5 16.7 75 2.8 NNE 11 20 6 11 1013.5 1013.4 0.0
09/06:00pm 21.4 21.2 16.6 74 2.9 NNE 13 24 7 13 1013.5 1013.4 0.0
09/05:30pm 21.5 20.2 16.7 74 2.9 NE 19 30 10 16 1013.4 1013.3 0.0
09/05:00pm 21.7 19.7 16.4 72 3.2 NE 22 35 12 19 1013.6 1013.5 0.0
09/04:30pm 22.1 20.5 16.4 70 3.5 NE 20 33 11 18 1013.9 1013.8 0.0
09/04:00pm 22.9 22.2 16.4 67 4.0 NE 15 24 8 13 1014.3 1014.2 0.0
09/03:30pm 22.9 22.5 16.2 66 4.1 NNE 13 24 7 13 1014.5 1014.4 0.0
09/03:00pm 23.4 23.1 16.4 64 4.3 NNE 13 24 7 13 1014.9 1014.8 0.0
09/02:30pm 23.1 21.5 16.6 67 4.0 NNE 20 33 11 18 1015.6 1015.5 0.0
09/02:00pm 22.4 17.9 16.4 69 3.6 NE 35 44 19 24 1015.7 1015.6 0.0
09/01:30pm 22.6 18.8 16.6 69 3.7 NE 32 50 17 27 1016.1 1016.0 0.0
09/01:29pm 22.5 18.6 16.5 69 3.7 NE 32 50 17 27 1016.1 1016.0 0.0
09/01:00pm 22.3 17.1 16.6 70 3.5 NNE 39 50 21 27 1016.6 1016.5 0.0
09/12:30pm 22.1 16.7 16.1 69 3.6 NNE 39 48 21 26 1017.0 1016.9 0.0
09/12:00pm 22.2 17.2 16.2 69 3.6 NNE 37 46 20 25 1017.6 1017.5 0.0
09/11:30am 22.2 19.0 16.2 69 3.6 NNE 28 43 15 23 1018.1 1018.0 0.0
09/11:00am 22.0 19.6 16.5 71 3.3 NNE 24 33 13 18 1018.7 1018.6 0.0
09/10:30am 22.0 19.5 16.1 69 3.6 NE 24 32 13 17 1019.2 1019.1 0.0
09/10:00am 21.9 19.6 15.7 68 3.7 NE 22 30 12 16 1019.5 1019.4 0.0
09/09:30am 22.6 23.3 16.2 67 3.9 N 7 22 4 12 1019.8 1019.7 0.0
09/09:00am 22.0 23.1 16.7 72 3.2 N 6 13 3 7 1020.3 1020.2 0.0
09/08:30am 20.7 21.1 16.3 76 2.7 N 9 15 5 8 1020.5 1020.4 0.0
09/08:00am 20.3 20.9 15.7 75 2.7 N 7 13 4 7 1020.8 1020.7 0.0
09/07:30am 19.6 20.7 15.7 78 2.3 NNW 4 7 2 4 1020.9 1020.8 0.0
09/07:00am 19.2 19.9 15.5 79 2.2 NNW 6 9 3 5 1021.0 1020.9 0.0
09/06:30am 19.2 20.8 15.9 81 2.0 NNE 2 6 1 3 1020.9 1020.8 0.0
09/06:00am 18.7 20.7 16.9 89 1.1 N 2 13 1 7 1020.8 1020.7 0.0
09/05:30am 17.8 19.7 15.8 88 1.2 CALM 0 0 0 0 1020.7 1020.6 0.0
09/05:00am 17.8 18.9 15.6 87 1.3 S 4 6 2 3 1020.7 1020.6 0.0
09/04:30am 17.8 18.7 15.2 85 1.5 S 4 6 2 3 1020.6 1020.5 0.0
09/04:00am 17.8 18.7 15.1 84 1.6 SSW 4 7 2 4 1020.6 1020.5 0.0
09/03:30am 18.0 18.8 14.9 82 1.8 S 4 7 2 4 1020.7 1020.6 0.0
09/03:00am 18.5 19.7 15.0 80 2.0 SSE 2 4 1 2 1020.9 1020.8 0.0
09/02:30am 19.1 20.9 15.4 79 2.2 CALM 0 0 0 0 1021.0 1020.9 0.0
09/02:00am 19.6 21.2 15.0 75 2.7 CALM 0 2 0 1 1021.1 1021.0 0.0
09/01:30am 19.6 20.2 15.3 76 2.5 N 6 9 3 5 1021.2 1021.1 0.0
09/01:00am 19.6 19.7 16.4 82 1.9 NE 11 19 6 10 1021.5 1021.4 0.0
09/12:30am 19.6 19.7 16.4 82 1.9 NE 11 19 6 10 1021.7 1021.6 0.0
09/12:00am 19.7 19.6 16.0 79 2.2 NE 11 20 6 11 1022.0 1021.9 0.0
 
Date/Time
EDT
Temp
°C
App
Temp
°C
Dew
Point
°C
Rel
Hum
%
Delta-T
°C
Wind Press
QNH
hPa
Press
MSL
hPa
Rain since
9am
mm
Dir  Spd
km/h
Gust
km/h
Spd
kts
Gust
kts
08/11:30pm 19.5 19.3 15.8 79 2.2 NE 11 20 6 11 1022.1 1022.0 0.0
08/11:00pm 19.3 18.3 15.6 79 2.2 NE 15 24 8 13 1022.0 1021.9 0.0
08/10:30pm 19.3 18.5 15.2 77 2.4 ENE 13 22 7 12 1022.3 1022.2 0.0
08/10:00pm 19.3 18.8 15.0 76 2.5 ENE 11 20 6 11 1022.2 1022.1 0.0
08/09:30pm 19.3 18.5 15.0 76 2.5 ENE 13 24 7 13 1022.0 1021.9 0.0
08/09:00pm 19.3 18.5 15.0 76 2.5 ENE 13 20 7 11 1021.8 1021.7 0.0
08/08:30pm 19.3 18.1 15.0 76 2.5 ENE 15 24 8 13 1021.4 1021.3 0.0
08/08:00pm 19.8 19.1 14.2 70 3.2 NE 11 20 6 11 1021.2 1021.1 0.0
08/07:30pm 19.8 19.1 14.2 70 3.2 NE 11 24 6 13 1020.7 1020.6 0.0
08/07:00pm 19.7 18.5 14.1 70 3.2 NE 13 20 7 11 1020.2 1020.1 0.0
08/06:30pm 19.7 18.9 13.9 69 3.3 ENE 11 20 6 11 1019.8 1019.7 0.0
08/06:00pm 19.4 19.3 14.9 75 2.6 E 9 22 5 12 1019.7 1019.6 0.0
08/05:30pm 19.4 19.2 14.6 74 2.8 E 9 19 5 10 1019.5 1019.4 0.0
08/05:00pm 19.3 18.9 14.1 72 3.0 ESE 9 17 5 9 1019.6 1019.5 0.0
08/04:30pm 19.4 18.6 14.0 71 3.1 ESE 11 19 6 10 1019.7 1019.6 0.0
08/04:00pm 19.7 18.9 14.1 70 3.2 ESE 11 22 6 12 1019.8 1019.7 0.0
08/03:30pm 19.6 18.7 13.8 69 3.3 ESE 11 19 6 10 1020.0 1019.9 0.0
08/03:00pm 19.4 18.8 13.6 69 3.3 ESE 9 19 5 10 1020.1 1020.0 0.0
08/02:30pm 19.1 18.2 13.7 71 3.1 SE 11 19 6 10 1020.3 1020.2 0.0
08/02:00pm 19.1 17.8 13.7 71 3.1 SE 13 22 7 12 1020.3 1020.2 0.0
08/01:30pm 19.6 18.0 12.8 65 3.8 SE 13 22 7 12 1020.3 1020.2 0.0
08/01:00pm 21.7 20.8 12.5 56 5.2 E 9 15 5 8 1020.2 1020.1 0.0
08/12:30pm 23.1 22.1 13.3 54 5.7 E 11 19 6 10 1020.1 1020.0 0.0
08/12:00pm 22.5 21.5 12.4 52 5.7 ENE 9 19 5 10 1020.1 1020.0 0.0
08/11:30am 22.7 22.0 13.2 55 5.5 ENE 9 19 5 10 1020.1 1020.0 0.0
08/11:00am 22.0 20.6 12.3 54 5.5 ENE 11 19 6 10 1020.0 1019.9 0.0
08/10:30am 22.5 22.6 13.8 58 5.1 SE 6 9 3 5 1019.8 1019.7 0.0
08/10:00am 20.8 20.5 12.8 60 4.5 ENE 6 11 3 6 1019.6 1019.5 0.0
08/09:30am 20.3 19.7 12.3 60 4.5 ENE 7 11 4 6 1019.6 1019.5 0.0
08/09:00am 19.9 19.4 11.9 60 4.4 ENE 6 9 3 5 1019.6 1019.5 0.0
08/08:30am 19.0 18.2 11.1 60 4.3 NNE 6 7 3 4 1019.3 1019.2 0.0
08/08:00am 18.6 18.4 11.7 64 3.8 NE 4 7 2 4 1019.1 1019.0 0.0
08/07:30am 18.1 17.6 12.1 68 3.3 N 6 7 3 4 1018.9 1018.8 0.0
08/07:00am 17.4 17.9 12.7 74 2.6 N 2 6 1 3 1018.8 1018.7 0.0
08/06:30am 16.6 16.9 13.5 82 1.7 N 4 7 2 4 1018.6 1018.5 0.0
08/06:00am 16.0 16.7 13.5 85 1.4 N 2 4 1 2 1018.0 1017.9 0.0
08/05:30am 16.2 16.8 13.1 82 1.7 N 2 6 1 3 1017.5 1017.4 0.0
08/05:00am 16.3 17.1 12.5 78 2.1 CALM 0 4 0 2 1017.3 1017.2 0.0
08/04:30am 16.7 17.4 12.3 75 2.4 CALM 0 0 0 0 1017.1 1017.0 0.0
08/04:00am 17.3 17.4 12.8 75 2.5 N 4 7 2 4 1016.9 1016.8 0.0
08/03:30am 17.5 17.3 13.0 75 2.5 NNW 6 9 3 5 1016.9 1016.8 0.0
08/03:00am 17.5 17.8 13.4 77 2.3 NNW 4 9 2 5 1017.0 1016.9 0.0
08/02:30am 17.3 17.5 13.2 77 2.3 NNW 4 6 2 3 1017.2 1017.1 0.0
08/02:00am 17.4 17.6 13.1 76 2.4 NNW 4 7 2 4 1017.3 1017.2 0.0
08/01:30am 17.5 17.7 13.2 76 2.4 NNW 4 9 2 5 1017.4 1017.3 0.0
08/01:00am 17.9 17.6 13.4 75 2.5 N 7 11 4 6 1017.4 1017.3 0.0
08/12:30am 18.0 17.5 13.7 76 2.4 N 9 17 5 9 1017.6 1017.5 0.0
08/12:00am 17.8 16.7 13.1 74 2.6 N 11 15 6 8 1017.7 1017.6 0.0
 
Date/Time
EDT
Temp
°C
App
Temp
°C
Dew
Point
°C
Rel
Hum
%
Delta-T
°C
Wind Press
QNH
hPa
Press
MSL
hPa
Rain since
9am
mm
Dir  Spd
km/h
Gust
km/h
Spd
kts
Gust
kts
07/11:30pm 18.1 17.4 13.2 73 2.8 NE 9 15 5 8 1017.8 1017.7 0.0
07/11:00pm 18.0 17.8 13.1 73 2.8 NE 6 9 3 5 1017.7 1017.6 0.0
07/10:30pm 18.0 17.6 13.1 73 2.8 NNE 7 13 4 7 1017.4 1017.3 0.0
07/10:00pm 17.9 17.6 12.8 72 2.8 NE 6 11 3 6 1017.2 1017.1 0.0
07/09:30pm 17.8 17.8 12.5 71 2.9 ENE 4 9 2 5 1017.0 1016.9 0.0
07/09:00pm 17.8 17.8 12.5 71 2.9 E 4 7 2 4 1016.5 1016.4 0.0
07/08:30pm 17.8 16.9 12.5 71 2.9 ESE 9 17 5 9 1016.0 1015.9 0.0
07/08:00pm 17.8 16.5 12.5 71 2.9 ESE 11 20 6 11 1015.6 1015.5 0.0
07/07:30pm 17.9 16.2 12.6 71 3.0 SE 13 24 7 13 1015.2 1015.1 0.0
07/07:00pm 18.2 16.7 13.1 72 2.9 SE 13 24 7 13 1014.5 1014.4 0.0

Latest Capital City Observations: Canberra | Sydney | Melbourne | Brisbane | Adelaide | Perth | Hobart | Darwin

Other formats

Comma delimited format used in spreadsheet applications
http://www.bom.gov.au/fwo/IDN60903/IDN60903.94938.axf

JavaScript Object Notation format (JSON) in row-major order
http://www.bom.gov.au/fwo/IDN60903/IDN60903.94938.json

Data quality

Most of these data are generated automatically and are frequently updated. Quality checks on data are not normally performed. It is possible for incorrect values to appear. Refer to information at About Latest Weather Observations and please check the disclaimer before using these data.